sensor_id;sensor_type;location;lat;lon;timestamp;temperature;humidity
1083;DHT22;530;51.448;7.238;2022-09-30T00:01:29;8.30;99.90
1083;DHT22;530;51.448;7.238;2022-09-30T00:03:57;8.30;99.90
1083;DHT22;530;51.448;7.238;2022-09-30T00:06:27;8.10;99.90
1083;DHT22;530;51.448;7.238;2022-09-30T00:08:54;8.10;99.90
1083;DHT22;530;51.448;7.238;2022-09-30T00:11:22;8.00;99.90
1083;DHT22;530;51.448;7.238;2022-09-30T00:13:51;7.90;99.90
1083;DHT22;530;51.448;7.238;2022-09-30T00:16:18;7.90;99.90
1083;DHT22;530;51.448;7.238;2022-09-30T00:18:45;8.00;99.90
1083;DHT22;530;51.448;7.238;2022-09-30T00:21:13;7.90;99.90
1083;DHT22;530;51.448;7.238;2022-09-30T00:23:40;7.90;99.90
1083;DHT22;530;51.448;7.238;2022-09-30T00:26:09;7.90;99.90
1083;DHT22;530;51.448;7.238;2022-09-30T00:28:37;7.60;99.90
1083;DHT22;530;51.448;7.238;2022-09-30T00:31:06;7.70;99.90
1083;DHT22;530;51.448;7.238;2022-09-30T00:33:33;7.70;99.90
1083;DHT22;530;51.448;7.238;2022-09-30T00:36:00;7.60;99.90
1083;DHT22;530;51.448;7.238;2022-09-30T00:38:26;7.90;99.90
1083;DHT22;530;51.448;7.238;2022-09-30T00:40:52;7.90;99.90
1083;DHT22;530;51.448;7.238;2022-09-30T00:43:36;7.80;99.90
1083;DHT22;530;51.448;7.238;2022-09-30T00:46:03;7.80;99.90
1083;DHT22;530;51.448;7.238;2022-09-30T00:48:33;7.90;99.90
1083;DHT22;530;51.448;7.238;2022-09-30T00:51:01;8.10;99.90
1083;DHT22;530;51.448;7.238;2022-09-30T00:53:29;8.10;99.90
1083;DHT22;530;51.448;7.238;2022-09-30T00:58:33;7.90;99.90
1083;DHT22;530;51.448;7.238;2022-09-30T01:01:00;7.90;99.90
1083;DHT22;530;51.448;7.238;2022-09-30T01:03:33;7.70;99.90
1083;DHT22;530;51.448;7.238;2022-09-30T01:06:01;7.70;99.90
1083;DHT22;530;51.448;7.238;2022-09-30T01:08:27;7.60;99.90
1083;DHT22;530;51.448;7.238;2022-09-30T01:10:55;7.60;99.90
1083;DHT22;530;51.448;7.238;2022-09-30T01:13:24;7.50;99.90
1083;DHT22;530;51.448;7.238;2022-09-30T01:16:05;7.50;99.90
1083;DHT22;530;51.448;7.238;2022-09-30T01:27:11;7.70;99.90
1083;DHT22;530;51.448;7.238;2022-09-30T01:30:06;7.80;99.90
1083;DHT22;530;51.448;7.238;2022-09-30T01:35:44;7.70;99.90
1083;DHT22;530;51.448;7.238;2022-09-30T01:38:28;7.70;99.90
1083;DHT22;530;51.448;7.238;2022-09-30T01:41:15;7.70;99.90
1083;DHT22;530;51.448;7.238;2022-09-30T01:46:42;7.50;99.90
1083;DHT22;530;51.448;7.238;2022-09-30T01:49:31;7.50;99.90
1083;DHT22;530;51.448;7.238;2022-09-30T01:52:06;7.50;99.90
1083;DHT22;530;51.448;7.238;2022-09-30T01:57:26;7.50;99.90
1083;DHT22;530;51.448;7.238;2022-09-30T02:00:06;7.40;99.90
1083;DHT22;530;51.448;7.238;2022-09-30T02:02:38;7.30;99.90
1083;DHT22;530;51.448;7.238;2022-09-30T02:05:10;7.50;99.90
1083;DHT22;530;51.448;7.238;2022-09-30T02:07:44;7.40;99.90
1083;DHT22;530;51.448;7.238;2022-09-30T02:10:41;7.60;99.90
1083;DHT22;530;51.448;7.238;2022-09-30T02:13:27;7.60;99.90
1083;DHT22;530;51.448;7.238;2022-09-30T02:15:58;7.40;99.90
1083;DHT22;530;51.448;7.238;2022-09-30T02:18:37;7.50;99.90
1083;DHT22;530;51.448;7.238;2022-09-30T02:21:06;7.60;99.90
1083;DHT22;530;51.448;7.238;2022-09-30T02:23:35;7.50;99.90
1083;DHT22;530;51.448;7.238;2022-09-30T02:26:19;7.70;99.90
1083;DHT22;530;51.448;7.238;2022-09-30T02:28:54;7.60;99.90
1083;DHT22;530;51.448;7.238;2022-09-30T02:31:23;7.90;99.90
1083;DHT22;530;51.448;7.238;2022-09-30T02:33:54;7.80;99.90
1083;DHT22;530;51.448;7.238;2022-09-30T02:36:30;7.80;99.90
1083;DHT22;530;51.448;7.238;2022-09-30T02:39:10;7.80;99.90
1083;DHT22;530;51.448;7.238;2022-09-30T02:41:45;8.10;99.90
1083;DHT22;530;51.448;7.238;2022-09-30T02:44:12;8.00;99.90
1083;DHT22;530;51.448;7.238;2022-09-30T02:47:04;8.00;99.90
1083;DHT22;530;51.448;7.238;2022-09-30T02:49:46;7.90;99.90
1083;DHT22;530;51.448;7.238;2022-09-30T02:52:19;7.70;99.90
1083;DHT22;530;51.448;7.238;2022-09-30T02:55:17;7.70;99.90
1083;DHT22;530;51.448;7.238;2022-09-30T03:00:30;7.50;99.90
1083;DHT22;530;51.448;7.238;2022-09-30T03:03:01;7.60;99.90
1083;DHT22;530;51.448;7.238;2022-09-30T03:05:29;7.40;99.90
1083;DHT22;530;51.448;7.238;2022-09-30T03:07:55;7.40;99.90
1083;DHT22;530;51.448;7.238;2022-09-30T03:10:22;7.30;99.90
1083;DHT22;530;51.448;7.238;2022-09-30T03:13:08;7.20;99.90
1083;DHT22;530;51.448;7.238;2022-09-30T03:18:47;6.90;99.90
1083;DHT22;530;51.448;7.238;2022-09-30T03:21:46;7.20;99.90
1083;DHT22;530;51.448;7.238;2022-09-30T03:30:00;7.30;99.90
1083;DHT22;530;51.448;7.238;2022-09-30T03:35:32;7.50;99.90
1083;DHT22;530;51.448;7.238;2022-09-30T03:38:02;7.30;99.90
1083;DHT22;530;51.448;7.238;2022-09-30T03:40:57;7.30;99.90
1083;DHT22;530;51.448;7.238;2022-09-30T03:43:32;7.70;99.90
1083;DHT22;530;51.448;7.238;2022-09-30T03:46:05;7.50;99.90
1083;DHT22;530;51.448;7.238;2022-09-30T03:48:35;7.50;99.90
1083;DHT22;530;51.448;7.238;2022-09-30T03:51:01;7.40;99.90
1083;DHT22;530;51.448;7.238;2022-09-30T03:53:28;7.30;99.90
1083;DHT22;530;51.448;7.238;2022-09-30T03:55:54;7.30;99.90
1083;DHT22;530;51.448;7.238;2022-09-30T03:58:21;7.20;99.90
1083;DHT22;530;51.448;7.238;2022-09-30T04:00:52;7.10;99.90
1083;DHT22;530;51.448;7.238;2022-09-30T04:03:20;7.00;99.90
1083;DHT22;530;51.448;7.238;2022-09-30T04:05:46;7.20;99.90
1083;DHT22;530;51.448;7.238;2022-09-30T04:08:12;7.20;99.90
1083;DHT22;530;51.448;7.238;2022-09-30T04:10:42;7.50;99.90
1083;DHT22;530;51.448;7.238;2022-09-30T04:13:09;7.20;99.90
1083;DHT22;530;51.448;7.238;2022-09-30T04:15:35;7.30;99.90
1083;DHT22;530;51.448;7.238;2022-09-30T04:18:02;7.50;99.90
1083;DHT22;530;51.448;7.238;2022-09-30T04:20:29;7.40;99.90
1083;DHT22;530;51.448;7.238;2022-09-30T04:22:59;7.30;99.90
1083;DHT22;530;51.448;7.238;2022-09-30T04:25:25;7.30;99.90
1083;DHT22;530;51.448;7.238;2022-09-30T04:27:51;7.40;99.90
1083;DHT22;530;51.448;7.238;2022-09-30T04:30:17;7.20;99.90
1083;DHT22;530;51.448;7.238;2022-09-30T04:32:43;7.40;99.90
1083;DHT22;530;51.448;7.238;2022-09-30T04:35:13;7.10;99.90
1083;DHT22;530;51.448;7.238;2022-09-30T04:37:43;7.20;99.90
1083;DHT22;530;51.448;7.238;2022-09-30T04:40:09;7.20;99.90
1083;DHT22;530;51.448;7.238;2022-09-30T04:42:37;7.30;99.90
1083;DHT22;530;51.448;7.238;2022-09-30T04:45:03;7.10;99.90
1083;DHT22;530;51.448;7.238;2022-09-30T04:47:29;7.10;99.90
1083;DHT22;530;51.448;7.238;2022-09-30T04:49:55;7.00;99.90
1083;DHT22;530;51.448;7.238;2022-09-30T04:52:22;7.10;99.90
1083;DHT22;530;51.448;7.238;2022-09-30T04:54:47;7.00;99.90
1083;DHT22;530;51.448;7.238;2022-09-30T04:57:13;7.00;99.90
1083;DHT22;530;51.448;7.238;2022-09-30T04:59:39;7.10;99.90
1083;DHT22;530;51.448;7.238;2022-09-30T05:02:05;6.90;99.90
1083;DHT22;530;51.448;7.238;2022-09-30T05:04:31;7.10;99.90
1083;DHT22;530;51.448;7.238;2022-09-30T05:06:58;7.10;99.90
1083;DHT22;530;51.448;7.238;2022-09-30T05:09:26;7.10;99.90
1083;DHT22;530;51.448;7.238;2022-09-30T05:11:51;7.10;99.90
1083;DHT22;530;51.448;7.238;2022-09-30T05:14:17;7.20;99.90
1083;DHT22;530;51.448;7.238;2022-09-30T05:16:43;7.10;99.90
1083;DHT22;530;51.448;7.238;2022-09-30T05:19:08;7.30;99.90
1083;DHT22;530;51.448;7.238;2022-09-30T05:21:34;7.10;99.90
1083;DHT22;530;51.448;7.238;2022-09-30T05:24:00;7.10;99.90
1083;DHT22;530;51.448;7.238;2022-09-30T05:26:26;7.00;99.90
1083;DHT22;530;51.448;7.238;2022-09-30T05:28:52;7.10;99.90
1083;DHT22;530;51.448;7.238;2022-09-30T05:31:18;7.30;99.90
1083;DHT22;530;51.448;7.238;2022-09-30T05:33:45;7.30;99.90
1083;DHT22;530;51.448;7.238;2022-09-30T05:36:13;7.50;99.90
1083;DHT22;530;51.448;7.238;2022-09-30T05:38:39;7.40;99.90
1083;DHT22;530;51.448;7.238;2022-09-30T05:41:11;7.60;99.90
1083;DHT22;530;51.448;7.238;2022-09-30T05:43:39;7.40;99.90
1083;DHT22;530;51.448;7.238;2022-09-30T05:46:05;7.50;99.90
1083;DHT22;530;51.448;7.238;2022-09-30T05:48:31;7.50;99.90
1083;DHT22;530;51.448;7.238;2022-09-30T05:50:57;7.40;99.90
1083;DHT22;530;51.448;7.238;2022-09-30T05:53:25;7.60;99.90
1083;DHT22;530;51.448;7.238;2022-09-30T05:55:51;7.50;99.90
1083;DHT22;530;51.448;7.238;2022-09-30T05:58:18;7.60;99.90
1083;DHT22;530;51.448;7.238;2022-09-30T06:00:45;7.40;99.90
1083;DHT22;530;51.448;7.238;2022-09-30T06:03:11;7.40;99.90
1083;DHT22;530;51.448;7.238;2022-09-30T06:05:39;7.20;99.90
1083;DHT22;530;51.448;7.238;2022-09-30T06:08:05;7.00;99.90
1083;DHT22;530;51.448;7.238;2022-09-30T06:10:34;7.10;99.90
1083;DHT22;530;51.448;7.238;2022-09-30T06:13:03;7.40;99.90
1083;DHT22;530;51.448;7.238;2022-09-30T06:15:29;7.50;99.90
1083;DHT22;530;51.448;7.238;2022-09-30T06:17:55;7.70;99.90
1083;DHT22;530;51.448;7.238;2022-09-30T06:20:21;7.90;99.90
1083;DHT22;530;51.448;7.238;2022-09-30T06:22:46;7.80;99.90
1083;DHT22;530;51.448;7.238;2022-09-30T06:25:13;7.90;99.90
1083;DHT22;530;51.448;7.238;2022-09-30T06:27:39;7.90;99.90
1083;DHT22;530;51.448;7.238;2022-09-30T06:30:08;7.90;99.90
1083;DHT22;530;51.448;7.238;2022-09-30T06:32:34;8.00;99.90
1083;DHT22;530;51.448;7.238;2022-09-30T06:35:00;8.00;99.90
1083;DHT22;530;51.448;7.238;2022-09-30T06:37:27;8.00;99.90
1083;DHT22;530;51.448;7.238;2022-09-30T06:39:53;8.30;99.90
1083;DHT22;530;51.448;7.238;2022-09-30T06:42:19;8.10;99.90
1083;DHT22;530;51.448;7.238;2022-09-30T06:44:45;8.30;99.90
1083;DHT22;530;51.448;7.238;2022-09-30T06:47:14;8.30;99.90
1083;DHT22;530;51.448;7.238;2022-09-30T06:49:40;8.40;99.90
1083;DHT22;530;51.448;7.238;2022-09-30T06:52:08;8.50;99.90
1083;DHT22;530;51.448;7.238;2022-09-30T06:54:38;8.70;99.90
1083;DHT22;530;51.448;7.238;2022-09-30T06:57:04;8.80;99.90
1083;DHT22;530;51.448;7.238;2022-09-30T06:59:29;8.90;99.90
1083;DHT22;530;51.448;7.238;2022-09-30T07:01:55;9.00;99.90
1083;DHT22;530;51.448;7.238;2022-09-30T07:04:21;9.00;99.90
1083;DHT22;530;51.448;7.238;2022-09-30T07:06:48;9.10;99.90
1083;DHT22;530;51.448;7.238;2022-09-30T07:09:13;9.20;99.90
1083;DHT22;530;51.448;7.238;2022-09-30T07:11:39;9.30;99.90
1083;DHT22;530;51.448;7.238;2022-09-30T07:14:05;9.40;99.90
1083;DHT22;530;51.448;7.238;2022-09-30T07:16:31;9.50;99.90
1083;DHT22;530;51.448;7.238;2022-09-30T07:19:00;9.70;99.90
1083;DHT22;530;51.448;7.238;2022-09-30T07:21:26;9.90;99.90
1083;DHT22;530;51.448;7.238;2022-09-30T07:23:52;10.10;99.90
1083;DHT22;530;51.448;7.238;2022-09-30T07:26:21;10.30;99.90
1083;DHT22;530;51.448;7.238;2022-09-30T07:28:48;10.50;99.90
1083;DHT22;530;51.448;7.238;2022-09-30T07:31:24;10.70;99.90
1083;DHT22;530;51.448;7.238;2022-09-30T07:33:51;11.00;99.90
1083;DHT22;530;51.448;7.238;2022-09-30T07:36:19;11.20;99.90
1083;DHT22;530;51.448;7.238;2022-09-30T07:38:47;11.50;99.90
1083;DHT22;530;51.448;7.238;2022-09-30T07:41:23;11.70;99.90
1083;DHT22;530;51.448;7.238;2022-09-30T07:43:53;11.90;99.90
1083;DHT22;530;51.448;7.238;2022-09-30T07:46:23;12.00;99.90
1083;DHT22;530;51.448;7.238;2022-09-30T07:48:51;12.10;99.90
1083;DHT22;530;51.448;7.238;2022-09-30T07:51:21;12.20;99.90
1083;DHT22;530;51.448;7.238;2022-09-30T07:53:53;12.30;99.90
1083;DHT22;530;51.448;7.238;2022-09-30T07:56:20;12.40;99.90
1083;DHT22;530;51.448;7.238;2022-09-30T07:58:46;12.40;99.90
1083;DHT22;530;51.448;7.238;2022-09-30T08:01:13;12.60;99.90
1083;DHT22;530;51.448;7.238;2022-09-30T08:03:41;12.60;99.90
1083;DHT22;530;51.448;7.238;2022-09-30T08:06:12;12.60;99.90
1083;DHT22;530;51.448;7.238;2022-09-30T08:08:38;12.60;99.90
1083;DHT22;530;51.448;7.238;2022-09-30T08:11:04;12.70;99.90
1083;DHT22;530;51.448;7.238;2022-09-30T08:13:30;12.80;99.90
1083;DHT22;530;51.448;7.238;2022-09-30T08:15:56;12.90;99.90
1083;DHT22;530;51.448;7.238;2022-09-30T08:18:22;12.90;99.90
1083;DHT22;530;51.448;7.238;2022-09-30T08:20:48;12.90;99.90
1083;DHT22;530;51.448;7.238;2022-09-30T08:23:13;13.00;99.90
1083;DHT22;530;51.448;7.238;2022-09-30T08:25:39;13.10;99.90
1083;DHT22;530;51.448;7.238;2022-09-30T08:28:05;13.20;99.90
1083;DHT22;530;51.448;7.238;2022-09-30T08:30:33;13.30;99.90
1083;DHT22;530;51.448;7.238;2022-09-30T08:32:59;13.30;99.90
1083;DHT22;530;51.448;7.238;2022-09-30T08:35:25;13.40;99.90
1083;DHT22;530;51.448;7.238;2022-09-30T08:37:50;13.40;99.90
1083;DHT22;530;51.448;7.238;2022-09-30T08:40:20;13.50;99.90
1083;DHT22;530;51.448;7.238;2022-09-30T08:42:51;13.50;99.90
1083;DHT22;530;51.448;7.238;2022-09-30T08:45:32;13.60;99.90
1083;DHT22;530;51.448;7.238;2022-09-30T08:53:22;13.80;99.90
1083;DHT22;530;51.448;7.238;2022-09-30T08:55:48;13.90;99.90
1083;DHT22;530;51.448;7.238;2022-09-30T08:58:26;14.00;99.90
1083;DHT22;530;51.448;7.238;2022-09-30T09:01:05;14.10;99.90
1083;DHT22;530;51.448;7.238;2022-09-30T09:03:34;14.20;99.90
1083;DHT22;530;51.448;7.238;2022-09-30T09:12:06;14.40;99.90
1083;DHT22;530;51.448;7.238;2022-09-30T09:14:46;14.50;99.90
1083;DHT22;530;51.448;7.238;2022-09-30T09:17:21;14.60;99.90
1083;DHT22;530;51.448;7.238;2022-09-30T09:20:13;14.70;99.90
1083;DHT22;530;51.448;7.238;2022-09-30T09:22:41;14.90;99.90
1083;DHT22;530;51.448;7.238;2022-09-30T09:25:15;14.90;99.90
1083;DHT22;530;51.448;7.238;2022-09-30T09:27:53;15.00;99.90
1083;DHT22;530;51.448;7.238;2022-09-30T09:30:22;15.20;99.90
1083;DHT22;530;51.448;7.238;2022-09-30T09:33:00;15.30;99.90
1083;DHT22;530;51.448;7.238;2022-09-30T09:44:12;15.70;99.90
1083;DHT22;530;51.448;7.238;2022-09-30T09:54:17;16.10;99.90
1083;DHT22;530;51.448;7.238;2022-09-30T09:56:44;16.20;99.90
1083;DHT22;530;51.448;7.238;2022-09-30T09:59:17;16.20;99.90
1083;DHT22;530;51.448;7.238;2022-09-30T10:01:48;16.30;99.90
1083;DHT22;530;51.448;7.238;2022-09-30T10:04:23;16.40;99.90
1083;DHT22;530;51.448;7.238;2022-09-30T10:06:59;16.50;99.90
1083;DHT22;530;51.448;7.238;2022-09-30T10:09:30;16.50;99.90
1083;DHT22;530;51.448;7.238;2022-09-30T10:12:25;16.50;99.90
1083;DHT22;530;51.448;7.238;2022-09-30T10:17:21;16.60;99.90
1083;DHT22;530;51.448;7.238;2022-09-30T10:19:54;16.70;99.90
1083;DHT22;530;51.448;7.238;2022-09-30T10:22:26;16.70;99.90
1083;DHT22;530;51.448;7.238;2022-09-30T10:30:44;16.90;99.90
1083;DHT22;530;51.448;7.238;2022-09-30T10:33:21;16.90;99.90
1083;DHT22;530;51.448;7.238;2022-09-30T10:36:10;16.90;99.90
1083;DHT22;530;51.448;7.238;2022-09-30T10:38:36;16.80;99.90
1083;DHT22;530;51.448;7.238;2022-09-30T10:41:09;16.70;99.90
1083;DHT22;530;51.448;7.238;2022-09-30T10:43:41;16.80;99.90
1083;DHT22;530;51.448;7.238;2022-09-30T10:46:08;16.80;99.90
1083;DHT22;530;51.448;7.238;2022-09-30T10:48:36;16.80;99.90
1083;DHT22;530;51.448;7.238;2022-09-30T10:51:03;16.70;99.90
1083;DHT22;530;51.448;7.238;2022-09-30T10:53:34;16.70;99.90
1083;DHT22;530;51.448;7.238;2022-09-30T10:56:00;16.60;99.90
1083;DHT22;530;51.448;7.238;2022-09-30T11:03:36;16.80;99.90
1083;DHT22;530;51.448;7.238;2022-09-30T11:06:04;16.70;99.90
1083;DHT22;530;51.448;7.238;2022-09-30T11:08:54;16.60;99.90
1083;DHT22;530;51.448;7.238;2022-09-30T11:11:28;16.60;99.90
1083;DHT22;530;51.448;7.238;2022-09-30T11:14:16;16.60;99.90
1083;DHT22;530;51.448;7.238;2022-09-30T11:21:56;17.00;99.90
1083;DHT22;530;51.448;7.238;2022-09-30T11:24:53;17.00;99.90
1083;DHT22;530;51.448;7.238;2022-09-30T11:30:11;16.90;99.90
1083;DHT22;530;51.448;7.238;2022-09-30T11:33:02;16.70;99.90
1083;DHT22;530;51.448;7.238;2022-09-30T11:57:22;17.40;99.30
1083;DHT22;530;51.448;7.238;2022-09-30T11:59:59;17.40;98.80
1083;DHT22;530;51.448;7.238;2022-09-30T12:04:58;17.60;99.70
1083;DHT22;530;51.448;7.238;2022-09-30T12:07:59;17.60;98.80
1083;DHT22;530;51.448;7.238;2022-09-30T12:10:36;17.70;98.10
1083;DHT22;530;51.448;7.238;2022-09-30T12:13:09;17.70;98.10
1083;DHT22;530;51.448;7.238;2022-09-30T12:15:40;17.70;97.90
1083;DHT22;530;51.448;7.238;2022-09-30T12:18:16;17.70;98.40
1083;DHT22;530;51.448;7.238;2022-09-30T12:20:50;17.70;98.40
1083;DHT22;530;51.448;7.238;2022-09-30T12:23:22;17.60;98.20
1083;DHT22;530;51.448;7.238;2022-09-30T12:25:56;17.50;97.90
1083;DHT22;530;51.448;7.238;2022-09-30T12:28:40;17.50;97.80
1083;DHT22;530;51.448;7.238;2022-09-30T12:36:59;17.60;98.30
1083;DHT22;530;51.448;7.238;2022-09-30T12:49:54;17.60;96.50
1083;DHT22;530;51.448;7.238;2022-09-30T12:52:21;17.50;96.90
1083;DHT22;530;51.448;7.238;2022-09-30T12:54:54;17.50;98.30
1083;DHT22;530;51.448;7.238;2022-09-30T12:57:32;17.40;97.10
1083;DHT22;530;51.448;7.238;2022-09-30T13:00:05;17.50;97.50
1083;DHT22;530;51.448;7.238;2022-09-30T13:02:39;17.50;97.30
1083;DHT22;530;51.448;7.238;2022-09-30T13:10:33;17.60;96.90
1083;DHT22;530;51.448;7.238;2022-09-30T13:13:21;17.60;97.60
1083;DHT22;530;51.448;7.238;2022-09-30T13:15:51;17.70;97.00
1083;DHT22;530;51.448;7.238;2022-09-30T13:20:51;17.80;98.00
1083;DHT22;530;51.448;7.238;2022-09-30T13:23:41;17.90;97.90
1083;DHT22;530;51.448;7.238;2022-09-30T13:32:28;18.00;96.70
1083;DHT22;530;51.448;7.238;2022-09-30T13:34:26;17.90;96.00
1083;DHT22;530;51.448;7.238;2022-09-30T13:39:26;17.60;96.40
1083;DHT22;530;51.448;7.238;2022-09-30T13:42:13;17.50;96.60
1083;DHT22;530;51.448;7.238;2022-09-30T13:45:02;17.40;97.00
1083;DHT22;530;51.448;7.238;2022-09-30T13:50:27;17.50;97.30
1083;DHT22;530;51.448;7.238;2022-09-30T13:53:00;17.50;97.30
1083;DHT22;530;51.448;7.238;2022-09-30T13:55:41;17.40;97.30
1083;DHT22;530;51.448;7.238;2022-09-30T13:58:33;17.30;97.90
1083;DHT22;530;51.448;7.238;2022-09-30T14:04:32;17.20;97.30
1083;DHT22;530;51.448;7.238;2022-09-30T14:20:37;17.10;97.40
1083;DHT22;530;51.448;7.238;2022-09-30T14:23:13;17.20;97.90
1083;DHT22;530;51.448;7.238;2022-09-30T14:26:27;17.20;97.70
1083;DHT22;530;51.448;7.238;2022-09-30T14:31:04;17.30;98.00
1083;DHT22;530;51.448;7.238;2022-09-30T14:33:33;17.30;98.10
1083;DHT22;530;51.448;7.238;2022-09-30T14:36:09;17.30;97.90
1083;DHT22;530;51.448;7.238;2022-09-30T14:38:36;17.30;98.30
1083;DHT22;530;51.448;7.238;2022-09-30T14:41:07;17.20;98.40
1083;DHT22;530;51.448;7.238;2022-09-30T14:43:41;17.20;98.60
1083;DHT22;530;51.448;7.238;2022-09-30T14:46:36;17.20;98.40
1083;DHT22;530;51.448;7.238;2022-09-30T14:49:13;17.20;98.40
1083;DHT22;530;51.448;7.238;2022-09-30T14:51:44;17.20;98.30
1083;DHT22;530;51.448;7.238;2022-09-30T14:54:19;17.20;98.30
1083;DHT22;530;51.448;7.238;2022-09-30T14:56:46;17.20;98.10
1083;DHT22;530;51.448;7.238;2022-09-30T14:59:25;17.20;98.20
1083;DHT22;530;51.448;7.238;2022-09-30T15:01:59;17.10;97.30
1083;DHT22;530;51.448;7.238;2022-09-30T15:04:37;17.00;97.80
1083;DHT22;530;51.448;7.238;2022-09-30T15:07:07;16.90;98.40
1083;DHT22;530;51.448;7.238;2022-09-30T15:09:36;16.90;98.00
1083;DHT22;530;51.448;7.238;2022-09-30T15:12:05;16.80;98.40
1083;DHT22;530;51.448;7.238;2022-09-30T15:14:31;16.80;98.70
1083;DHT22;530;51.448;7.238;2022-09-30T15:17:00;16.70;98.50
1083;DHT22;530;51.448;7.238;2022-09-30T15:19:41;16.60;98.80
1083;DHT22;530;51.448;7.238;2022-09-30T15:22:09;16.50;99.30
1083;DHT22;530;51.448;7.238;2022-09-30T15:24:36;16.50;99.30
1083;DHT22;530;51.448;7.238;2022-09-30T15:27:03;16.40;99.10
1083;DHT22;530;51.448;7.238;2022-09-30T15:29:29;16.40;99.00
1083;DHT22;530;51.448;7.238;2022-09-30T15:31:58;16.40;99.20
1083;DHT22;530;51.448;7.238;2022-09-30T15:34:26;16.30;98.60
1083;DHT22;530;51.448;7.238;2022-09-30T15:37:01;16.30;99.10
1083;DHT22;530;51.448;7.238;2022-09-30T15:39:32;16.30;99.10
1083;DHT22;530;51.448;7.238;2022-09-30T15:45:32;16.30;98.60
1083;DHT22;530;51.448;7.238;2022-09-30T15:50:43;16.20;99.10
1083;DHT22;530;51.448;7.238;2022-09-30T15:53:21;16.30;99.30
1083;DHT22;530;51.448;7.238;2022-09-30T15:55:48;16.20;99.20
1083;DHT22;530;51.448;7.238;2022-09-30T16:03:33;16.10;99.90
1083;DHT22;530;51.448;7.238;2022-09-30T16:06:11;16.20;99.90
1083;DHT22;530;51.448;7.238;2022-09-30T16:08:56;16.10;99.60
1083;DHT22;530;51.448;7.238;2022-09-30T16:11:35;16.10;99.30
1083;DHT22;530;51.448;7.238;2022-09-30T16:14:03;16.10;99.90
1083;DHT22;530;51.448;7.238;2022-09-30T16:16:33;16.00;99.90
1083;DHT22;530;51.448;7.238;2022-09-30T16:19:00;16.10;99.90
1083;DHT22;530;51.448;7.238;2022-09-30T16:27:19;16.00;99.90
1083;DHT22;530;51.448;7.238;2022-09-30T16:29:45;15.90;99.90
1083;DHT22;530;51.448;7.238;2022-09-30T16:32:11;15.80;99.90
1083;DHT22;530;51.448;7.238;2022-09-30T16:34:39;15.70;99.90
1083;DHT22;530;51.448;7.238;2022-09-30T16:37:12;15.60;99.90
1083;DHT22;530;51.448;7.238;2022-09-30T16:39:39;15.50;99.90
1083;DHT22;530;51.448;7.238;2022-09-30T16:42:05;15.50;99.90
1083;DHT22;530;51.448;7.238;2022-09-30T16:44:31;15.50;99.90
1083;DHT22;530;51.448;7.238;2022-09-30T16:47:02;15.40;99.90
1083;DHT22;530;51.448;7.238;2022-09-30T16:49:28;15.30;99.90
1083;DHT22;530;51.448;7.238;2022-09-30T16:51:53;15.20;99.90
1083;DHT22;530;51.448;7.238;2022-09-30T16:54:19;15.20;99.90
1083;DHT22;530;51.448;7.238;2022-09-30T16:56:45;15.00;99.90
1083;DHT22;530;51.448;7.238;2022-09-30T16:59:15;14.90;99.90
1083;DHT22;530;51.448;7.238;2022-09-30T17:01:42;14.70;99.90
1083;DHT22;530;51.448;7.238;2022-09-30T17:04:08;14.60;99.90
1083;DHT22;530;51.448;7.238;2022-09-30T17:06:35;14.50;99.90
1083;DHT22;530;51.448;7.238;2022-09-30T17:09:02;14.40;99.90
1083;DHT22;530;51.448;7.238;2022-09-30T17:11:31;14.20;99.90
1083;DHT22;530;51.448;7.238;2022-09-30T17:14:01;14.10;99.90
1083;DHT22;530;51.448;7.238;2022-09-30T17:16:27;14.00;99.90
1083;DHT22;530;51.448;7.238;2022-09-30T17:18:54;13.90;99.90
1083;DHT22;530;51.448;7.238;2022-09-30T17:21:21;13.80;99.90
1083;DHT22;530;51.448;7.238;2022-09-30T17:23:47;13.70;99.90
1083;DHT22;530;51.448;7.238;2022-09-30T17:26:13;13.50;99.90
1083;DHT22;530;51.448;7.238;2022-09-30T17:28:39;13.50;99.90
1083;DHT22;530;51.448;7.238;2022-09-30T17:31:06;13.40;99.90
1083;DHT22;530;51.448;7.238;2022-09-30T17:33:33;13.20;99.90
1083;DHT22;530;51.448;7.238;2022-09-30T17:36:04;13.10;99.90
1083;DHT22;530;51.448;7.238;2022-09-30T17:38:32;13.00;99.90
1083;DHT22;530;51.448;7.238;2022-09-30T17:40:58;13.00;99.90
1083;DHT22;530;51.448;7.238;2022-09-30T17:43:43;12.90;99.90
1083;DHT22;530;51.448;7.238;2022-09-30T17:46:10;12.70;99.90
1083;DHT22;530;51.448;7.238;2022-09-30T17:48:37;12.70;99.90
1083;DHT22;530;51.448;7.238;2022-09-30T17:51:04;12.60;99.90
1083;DHT22;530;51.448;7.238;2022-09-30T17:53:30;12.50;99.90
1083;DHT22;530;51.448;7.238;2022-09-30T17:56:05;12.50;99.90
1083;DHT22;530;51.448;7.238;2022-09-30T17:58:34;12.50;99.90
1083;DHT22;530;51.448;7.238;2022-09-30T18:01:08;12.80;99.90
1083;DHT22;530;51.448;7.238;2022-09-30T18:03:34;12.80;99.90
1083;DHT22;530;51.448;7.238;2022-09-30T18:06:00;12.70;99.90
1083;DHT22;530;51.448;7.238;2022-09-30T18:08:26;12.70;99.90
1083;DHT22;530;51.448;7.238;2022-09-30T18:10:53;12.70;99.90
1083;DHT22;530;51.448;7.238;2022-09-30T18:13:19;12.80;99.90
1083;DHT22;530;51.448;7.238;2022-09-30T18:15:45;13.00;99.90
1083;DHT22;530;51.448;7.238;2022-09-30T18:18:11;13.10;99.90
1083;DHT22;530;51.448;7.238;2022-09-30T18:20:45;13.20;99.90
1083;DHT22;530;51.448;7.238;2022-09-30T18:23:11;13.20;99.90
1083;DHT22;530;51.448;7.238;2022-09-30T18:25:37;13.10;99.90
1083;DHT22;530;51.448;7.238;2022-09-30T18:28:05;13.10;99.90
1083;DHT22;530;51.448;7.238;2022-09-30T18:30:33;13.00;99.90
1083;DHT22;530;51.448;7.238;2022-09-30T18:32:59;13.00;99.90
1083;DHT22;530;51.448;7.238;2022-09-30T18:35:25;13.00;99.90
1083;DHT22;530;51.448;7.238;2022-09-30T18:37:52;13.00;99.90
1083;DHT22;530;51.448;7.238;2022-09-30T18:40:19;13.10;99.90
1083;DHT22;530;51.448;7.238;2022-09-30T18:42:46;13.10;99.90
1083;DHT22;530;51.448;7.238;2022-09-30T18:45:12;13.00;99.90
1083;DHT22;530;51.448;7.238;2022-09-30T18:47:39;12.90;99.90
1083;DHT22;530;51.448;7.238;2022-09-30T18:50:08;12.90;99.90
1083;DHT22;530;51.448;7.238;2022-09-30T18:52:34;12.90;99.90
1083;DHT22;530;51.448;7.238;2022-09-30T18:55:00;13.00;99.90
1083;DHT22;530;51.448;7.238;2022-09-30T18:57:26;13.20;99.90
1083;DHT22;530;51.448;7.238;2022-09-30T18:59:51;13.20;99.90
1083;DHT22;530;51.448;7.238;2022-09-30T19:02:17;13.20;99.90
1083;DHT22;530;51.448;7.238;2022-09-30T19:04:45;13.30;99.90
1083;DHT22;530;51.448;7.238;2022-09-30T19:07:13;13.20;99.90
1083;DHT22;530;51.448;7.238;2022-09-30T19:09:39;13.10;99.90
1083;DHT22;530;51.448;7.238;2022-09-30T19:12:06;13.10;99.90
1083;DHT22;530;51.448;7.238;2022-09-30T19:14:32;13.10;99.90
1083;DHT22;530;51.448;7.238;2022-09-30T19:16:59;13.20;99.90
1083;DHT22;530;51.448;7.238;2022-09-30T19:19:24;13.20;99.90
1083;DHT22;530;51.448;7.238;2022-09-30T19:21:50;13.30;99.90
1083;DHT22;530;51.448;7.238;2022-09-30T19:24:16;13.40;99.90
1083;DHT22;530;51.448;7.238;2022-09-30T19:26:42;13.40;99.90
1083;DHT22;530;51.448;7.238;2022-09-30T19:29:08;13.40;99.90
1083;DHT22;530;51.448;7.238;2022-09-30T19:31:34;13.40;99.90
1083;DHT22;530;51.448;7.238;2022-09-30T19:34:00;13.30;99.90
1083;DHT22;530;51.448;7.238;2022-09-30T19:36:27;13.30;99.90
1083;DHT22;530;51.448;7.238;2022-09-30T19:38:53;13.20;99.90
1083;DHT22;530;51.448;7.238;2022-09-30T19:41:24;13.20;99.90
1083;DHT22;530;51.448;7.238;2022-09-30T19:43:50;13.10;99.90
1083;DHT22;530;51.448;7.238;2022-09-30T19:46:16;13.10;99.90